Bodega Marine Reserve, California Weather observations

Data are for 10 minute period ending at time listed.
 Day   Time   Solar   Ave.   Ave.  Ave.  Vector  Max.   Baro.   Total    
  of    of     Rad.   Air    Rel.  Wind   Wind   Wind  Press.  Precip.   
Year   Day            Temp.  Hum.  Speed  Dir.   Gust                    
2015   (PST)  Kw/m2    F      %     mph   deg.    mph    mb.     in.     
-------------------------------------------------------------------------
 142    0:10   0.00   51.1    94    5.3   285     6.8   1012.2    0.00 
 142    0:20   0.00   51.4    94    6.0   290     7.5   1012.2    0.00 
 142    0:30   0.00   51.5    94    5.8   292     8.3   1012.2    0.00 
 142    0:40   0.00   51.5    94    6.4   295     9.6   1012.2    0.00 
 142    0:50   0.00   51.7    94    6.6   293     9.1   1012.2    0.00 
 142    1:00   0.00   51.9    94    7.3   295    10.5   1012.2    0.00 
 142    1:10   0.00   52.2    94    7.8   296    10.9   1012.2    0.00 
 142    1:20   0.00   52.2    94    8.4   293    11.2   1012.2    0.00 
 142    1:30   0.00   52.2    94    8.4   294    11.5   1012.2    0.00 
 142    1:40   0.01   52.4    94    8.1   296    11.9   1012.2    0.00 
 142    1:50   0.01   52.4    94    8.2   296    12.6   1012.2    0.00 
 142    2:00   0.01   52.4    94    9.8   287    13.7   1012.2    0.00 
 142    2:10   0.01   52.4    94   10.2   291    13.4   1012.2    0.00 
 142    2:20   0.01   52.3    93    9.2   293    12.9   1012.2    0.00 
 142    2:30   0.01   52.2    93    9.3   289    11.8   1012.2    0.00 
 142    2:40   0.01   52.1    93    9.4   288    13.7   1012.2    0.00 
 142    2:50   0.01   52.3    93    9.8   293    13.3   1012.2    0.00 
 142    3:00   0.01   52.3    93    9.1   297    12.1   1012.2    0.00 
 142    3:10   0.01   52.3    93    9.0   295    12.1   1012.2    0.00 
 142    3:20   0.00   52.2    93    9.0   293    11.3   1012.2    0.00 
 142    3:30   0.00   52.1    93    7.2   290    10.2   1012.2    0.00 
 142    3:40   0.00   52.0    94    5.7   298     8.3   1012.2    0.00 
 142    3:50   0.00   51.7    93    5.6   302     7.7   1012.5    0.00 
 142    4:00   0.00   51.2    93    5.6   309     7.5   1012.2    0.00 
 142    4:10   0.00   50.7    94    4.6   307     6.6   1012.5    0.00 
 142    4:20   0.00   50.7    94    4.7   305     6.4   1012.5    0.00 
 142    4:30   0.00   50.5    94    4.4   304     5.6   1012.2    0.00 
 142    4:40   0.00   49.6    94    4.1   320     5.8   1012.2    0.00 
 142    4:50   0.00   48.9    94    3.4   333     4.7   1012.2    0.00 
 142    5:00   0.01   48.8    94    2.8   296     3.6   1012.5    0.00 
 142    5:10   0.01   48.4    94    3.7   289     4.7   1012.5    0.00 
 142    5:20   0.02   48.8    94    5.9   287     7.7   1012.5    0.00 
 142    5:30   0.03   50.2    94    5.8   293     7.6   1012.5    0.00 
 142    5:40   0.04   50.9    94    4.5   285     6.0   1012.5    0.00 
 142    5:50   0.06   51.7    94    4.2   282     5.9   1012.5    0.00 
 142    6:00   0.04   52.0    94    4.4   290     6.3   1012.9    0.00 
 142    6:10   0.04   52.3    94    5.7   300     8.0   1012.9    0.00 
 142    6:20   0.04   52.5    94    5.8   305     7.7   1013.2    0.00 
 142    6:30   0.04   52.6    94    4.9   301     6.3   1013.2    0.00 
 142    6:40   0.04   52.8    94    6.4   302     9.3   1013.2    0.00 
 142    6:50   0.04   52.9    94    5.9   307     7.7   1013.2    0.00 
 142    7:00   0.05   53.0    94    5.6   306     8.9   1013.5    0.00 
 142    7:10   0.07   53.0    94    5.9   291     7.7   1013.5    0.00 
 142    7:20   0.07   53.1    94    6.3   288     9.8   1013.5    0.00 
 142    7:30   0.07   53.2    94    6.5   289     9.0   1013.5    0.00 
 142    7:40   0.07   53.1    94    6.3   303     9.2   1013.5    0.00 
 142    7:50   0.07   53.0    94    5.8   306     7.4   1013.5    0.00 
 142    8:00   0.08   53.1    94    5.7   302     7.2   1013.5    0.00 
 142    8:10   0.09   53.2    94    5.5   305     7.6   1013.9    0.00 
 142    8:20   0.12   53.3    95    5.4   301     7.8   1013.9    0.00 
 142    8:30   0.15   53.5    95    5.4   305     7.3   1013.9    0.00 
 142    8:40   0.17   53.6    95    4.6   311     7.3   1013.9    0.00 
 142    8:50   0.18   54.1    94    4.8   280     6.9   1013.9    0.00 
 142    9:00   0.21   54.0    94    4.3   281     6.0   1013.9    0.00 
 142    9:10   0.21   54.1    94    4.2   276     5.6   1013.9    0.00 
 142    9:20   0.18   54.4    94    4.7   278     7.2   1014.2    0.00 
 142    9:30   0.24   54.6    94    6.0   278    10.0   1014.2    0.00 
 142    9:40   0.42   55.1    94    6.9   274     9.7   1014.2    0.00 
 142    9:50   0.44   55.7    93    7.1   278     8.9   1014.2    0.00 
 142   10:00   0.54   56.4    93    6.8   277     9.6   1014.2    0.00 
 142   10:10   0.57   56.9    91    7.9   284    10.3   1014.2    0.00 
 142   10:20   0.48   57.4    89    8.7   276    12.3   1014.2    0.00 
 142   10:30   0.41   57.0    89    7.6   283    10.9   1014.6    0.00 
 142   10:40   0.51   57.1    88    9.6   279    12.7   1014.6    0.00 
 142   10:50   0.41   57.1    87    8.5   280    11.2   1014.6    0.00 
 142   11:00   0.56   57.3    86    8.8   281    12.0   1014.6    0.00 
 142   11:10   0.69   57.7    85    8.8   282    11.7   1014.6    0.00 
 142   11:20   0.61   58.0    84    8.5   276    12.0   1014.6    0.00 
 142   11:30   0.63   57.9    83    9.7   281    13.0   1014.6    0.00 
 142   11:40   0.71   58.1    83   10.1   279    14.0   1014.6    0.00 
 142   11:50   0.71   58.4    82   10.8   282    15.7   1014.6    0.00 
 142   12:00   0.77   58.8    81   11.2   280    14.9   1014.6    0.00 
 142   12:10   0.70   58.7    81   11.4   282    14.7   1014.2    0.00 
 142   12:20   0.75   59.7    79   10.7   300    15.3   1014.2    0.00 
 142   12:30   0.73   59.8    78   11.0   299    15.3   1014.2    0.00 
 142   12:40   0.70   59.5    78   10.3   286    15.1   1014.2    0.00 
 142   12:50   0.71   59.1    79   10.2   283    13.7   1014.2    0.00 
 142   13:00   0.82   59.0    80   11.2   282    15.6   1014.2    0.00 
 142   13:10   100.00  99999.0   99999  99999.0   99999   99999.0   99999.0   99999.00 
 142   13:20   100.00  99999.0   99999  99999.0   99999   99999.0   99999.0   99999.00 
 142   13:30   100.00  99999.0   99999  99999.0   99999   99999.0   99999.0   99999.00 
 142   13:40   100.00  99999.0   99999  99999.0   99999   99999.0   99999.0   99999.00 
 142   13:50   100.00  99999.0   99999  99999.0   99999   99999.0   99999.0   99999.00 
 142   14:00   100.00  99999.0   99999  99999.0   99999   99999.0   99999.0   99999.00 
 142   14:10   0.81   60.0    75   13.7   287    18.7   1013.9    0.00 
 142   14:20   0.38   59.8    76   15.2   289    20.5   1013.9    0.00 
 142   14:30   0.07   59.6    76   16.7   291    22.6   1013.9    0.00 
 142   14:40   0.07   59.3    77   17.5   292    24.0   1013.9    0.00 
 142   14:50   0.23   59.5    77   17.1   293    22.4   1013.9    0.00 
 142   15:00   0.26   59.2    77   16.7   293    25.2   1013.9    0.00 
 142   15:10   0.33   59.5    76   15.4   291    22.3   1013.9    0.00 
 142   15:20   0.55   59.6    76   15.1   290    23.1   1013.9    0.00 
 142   15:30   0.57   59.1    76   16.1   289    21.5   1013.9    0.00 
 142   15:40   0.63   58.5    78   16.0   287    21.5   1013.9    0.00 
 142   15:50   0.60   58.9    77   14.6   288    21.3   1013.9    0.00 
 142   16:00   0.48   58.5    78   15.3   288    22.6   1013.9    0.00 
 142   16:10   0.37   58.1    79   17.1   288    23.2   1013.5    0.00 
 142   16:20   0.17   58.0    79   16.3   291    23.4   1013.5    0.00 
 142   16:30   0.48   58.0    79   16.9   295    22.8   1013.5    0.00 
 142   16:40   0.44   57.7    79   16.8   295    23.2   1013.5    0.00 
 142   16:50   0.42   57.3    80   16.6   295    23.2   1013.5    0.00 
 142   17:00   0.39   57.2    81   15.5   294    22.7   1013.5    0.00 
 142   17:10   0.34   57.0    81   16.3   294    23.1   1013.5    0.00 
 142   17:20   0.32   56.4    82   16.8   293    23.2   1013.5    0.00 
 142   17:30   0.29   56.2    83   16.7   292    23.2   1013.2    0.00 
 142   17:40   0.26   56.2    83   15.1   293    21.0   1013.5    0.00 
 142   17:50   0.23   55.8    84   17.0   295    22.5   1013.5    0.00 
 142   18:00   0.18   55.3    85   17.2   294    25.3   1013.5    0.00 
 142   18:10   0.17   55.0    85   17.3   293    23.1   1013.2    0.00 
 142   18:20   0.10   54.6    85   16.7   294    22.0   1013.5    0.00 
 142   18:30   0.09   54.1    86   15.8   300    21.2   1013.2    0.00 
 142   18:40   0.10   54.0    86   15.1   303    22.1   1013.2    0.00 
 142   18:50   0.07   53.7    86   15.4   307    23.8   1013.2    0.00 
 142   19:00   0.05   53.4    86   17.8   305    24.3   1013.2    0.00 
 142   19:10   0.03   53.2    86   18.2   303    25.4   1013.5    0.00 
 142   19:20   0.01   53.0    87   16.9   301    22.6   1013.2    0.00 
 142   19:30   0.01   52.9    88   18.0   300    25.0   1013.2    0.00 
 142   19:40   0.00   52.8    88   18.7   301    24.9   1013.2    0.00 
 142   19:50   0.00   52.8    89   18.5   301    26.6   1013.2    0.00 
 142   20:00   0.00   52.6    89   18.4   299    26.9   1013.2    0.00 
 142   20:10   0.00   52.6    89   17.9   301    25.7   1013.2    0.00 
 142   20:20   0.00   52.4    90   16.7   305    24.4   1013.5    0.00 
 142   20:30   0.00   52.3    90   18.3   301    23.0   1013.5    0.00 
 142   20:40   0.00   52.2    90   17.5   304    23.1   1013.9    0.00 
 142   20:50   0.00   52.1    90   16.9   308    22.8   1013.9    0.00 
 142   21:00   0.00   52.1    90   17.0   307    22.1   1013.9    0.00 
 142   21:10   0.00   52.0    91   15.3   310    19.6   1013.9    0.00 
 142   21:20   0.00   52.0    91   15.4   312    19.6   1013.9    0.00 
 142   21:30   0.00   51.9    91   14.2   314    19.6   1013.9    0.00 
 142   21:40   0.00   51.7    91   14.8   308    18.9   1013.9    0.00 
 142   21:50   0.00   51.6    92   15.1   306    20.8   1013.9    0.00 
 142   22:00   0.00   51.5    92   14.2   314    19.5   1013.9    0.00 
 142   22:10   0.00   51.4    92   12.1   315    16.7   1013.9    0.00 
 142   22:20   0.00   51.2    92   13.4   306    16.9   1013.9    0.00 
 142   22:30   0.00   51.2    92   12.9   307    18.9   1013.9    0.00 
 142   22:40   0.00   51.4    92   12.5   307    16.1   1014.2    0.00 
 142   22:50   0.00   51.5    93   12.9   308    17.8   1014.2    0.00 
 142   23:00   0.00   51.5    93   13.0   310    17.9   1014.2    0.00 
 142   23:10   0.00   51.4    93   11.9   316    16.6   1014.2    0.00 
 142   23:20   0.00   51.4    93   12.4   312    15.4   1014.2    0.00 
 142   23:30   0.00   51.3    93   12.4   310    16.1   1014.2    0.00 
 142   23:40   0.00   51.2    93   12.0   308    15.0   1014.2    0.00 
 142   23:50   0.00   51.2    93   11.5   307    17.0   1014.2    0.00 
 143    0:00   0.00   51.4    93   12.1   303    15.6   1014.6    0.00 

Return to Bodega Marine Reserve graphs page.


Western Regional Climate Center,wrcc@dri.edu